Time;durP1;ratioP1;P1;durP2;ratioP2;P2;SDS_P1;SDS_P2;PMS_P1;PMS_P2;Temp;Humidity;BMP_temperature;BMP_pressure;BME280_temperature;BME280_humidity;BME280_pressure;Samples;Min_cycle;Max_cycle;Signal;HPM_P1;HPM_P2
2023/12/19 00:00:57;;;;;;;31.97;20.30;;;7.80;99.90;;;;;;5006612;28;20282;-54
2023/12/19 00:03:24;;;;;;;37.13;23.07;;;7.90;99.90;;;;;;5004112;28;20204;-56
2023/12/19 00:05:52;;;;;;;34.53;21.77;;;7.80;99.90;;;;;;5008589;28;20204;-54
2023/12/19 00:08:19;;;;;;;33.80;21.00;;;7.80;99.90;;;;;;4977678;28;20216;-52
2023/12/19 00:10:47;;;;;;;37.00;22.00;;;7.80;99.90;;;;;;5008566;28;20207;-56
2023/12/19 00:13:13;;;;;;;32.87;22.40;;;7.80;99.90;;;;;;5000092;28;20279;-56
2023/12/19 00:15:41;;;;;;;36.03;21.80;;;7.80;99.90;;;;;;5008814;28;20296;-56
2023/12/19 00:18:08;;;;;;;34.03;21.67;;;7.90;99.90;;;;;;5010493;28;20223;-55
2023/12/19 00:20:34;;;;;;;35.27;21.60;;;7.90;99.90;;;;;;5006157;28;20707;-55
2023/12/19 00:23:03;;;;;;;27.77;16.27;;;7.80;99.90;;;;;;5003500;28;20219;-56
2023/12/19 00:25:31;;;;;;;28.80;19.73;;;7.90;99.90;;;;;;4986289;28;20204;-56
2023/12/19 00:27:59;;;;;;;28.30;17.73;;;7.80;99.90;;;;;;5002083;28;20924;-56
2023/12/19 00:30:26;;;;;;;29.67;19.33;;;7.80;99.90;;;;;;5008762;28;20222;-56
2023/12/19 00:32:53;;;;;;;32.33;21.20;;;7.80;99.90;;;;;;5011897;28;20255;-54
2023/12/19 00:35:20;;;;;;;30.63;19.80;;;7.80;99.90;;;;;;5017749;28;20281;-54
2023/12/19 00:37:47;;;;;;;29.07;17.67;;;7.80;99.90;;;;;;5011551;28;20667;-53
2023/12/19 00:40:15;;;;;;;34.07;20.27;;;7.80;99.90;;;;;;4992692;28;20240;-56
2023/12/19 00:42:42;;;;;;;35.23;19.53;;;7.80;99.90;;;;;;5006625;28;20283;-55
2023/12/19 00:45:11;;;;;;;30.73;19.43;;;7.80;99.90;;;;;;5012683;28;20203;-56
2023/12/19 00:47:38;;;;;;;31.87;19.53;;;7.80;99.90;;;;;;5017681;28;20239;-55
2023/12/19 00:50:08;;;;;;;33.93;19.53;;;7.80;99.90;;;;;;5013563;28;20243;-56
2023/12/19 00:52:35;;;;;;;26.23;17.27;;;7.80;99.90;;;;;;5019248;28;20195;-56
2023/12/19 00:55:01;;;;;;;24.30;16.23;;;7.80;99.90;;;;;;5014617;28;20192;-53
2023/12/19 00:57:30;;;;;;;26.40;18.23;;;7.80;99.90;;;;;;4987466;28;20296;-55
2023/12/19 00:59:56;;;;;;;28.90;18.00;;;7.80;99.90;;;;;;5010609;28;20216;-52
2023/12/19 01:02:23;;;;;;;31.20;17.90;;;7.80;99.90;;;;;;5018325;28;20261;-54
2023/12/19 01:04:50;;;;;;;25.13;17.60;;;7.80;99.90;;;;;;5013196;28;20818;-55
2023/12/19 01:07:17;;;;;;;31.13;17.13;;;7.80;99.90;;;;;;5018066;28;20203;-53
2023/12/19 01:09:44;;;;;;;27.27;16.63;;;7.80;99.90;;;;;;5014636;28;20678;-54
2023/12/19 01:12:11;;;;;;;25.00;16.97;;;7.80;99.90;;;;;;4993541;28;20215;-56
2023/12/19 01:14:39;;;;;;;23.07;15.50;;;7.80;99.90;;;;;;5002485;28;20200;-55
2023/12/19 01:17:06;;;;;;;19.83;13.70;;;7.80;99.90;;;;;;5014093;28;20207;-56
2023/12/19 01:19:33;;;;;;;25.40;16.03;;;7.80;99.90;;;;;;5015081;28;20219;-54
2023/12/19 01:22:00;;;;;;;19.33;13.13;;;7.80;99.90;;;;;;5012516;28;20358;-54
2023/12/19 01:24:27;;;;;;;23.07;15.77;;;7.80;99.90;;;;;;5014601;28;20250;-53
2023/12/19 01:26:53;;;;;;;19.43;13.53;;;7.80;99.90;;;;;;5010879;28;20209;-54
2023/12/19 01:29:20;;;;;;;18.47;12.00;;;7.80;99.90;;;;;;4984991;28;20441;-56
2023/12/19 01:31:49;;;;;;;25.17;14.97;;;7.80;99.90;;;;;;5010093;28;20242;-53
2023/12/19 01:34:15;;;;;;;25.73;15.47;;;7.80;99.90;;;;;;5017166;28;20671;-55
2023/12/19 01:36:42;;;;;;;19.73;12.30;;;7.80;99.90;;;;;;5013343;28;20200;-55
2023/12/19 01:39:09;;;;;;;23.43;14.60;;;7.80;99.90;;;;;;5007513;28;20698;-53
2023/12/19 01:41:36;;;;;;;21.77;14.97;;;7.80;99.90;;;;;;5008890;28;20297;-53
2023/12/19 01:44:03;;;;;;;17.83;12.93;;;7.80;99.90;;;;;;4992615;28;20275;-55
2023/12/19 01:46:30;;;;;;;21.30;14.10;;;7.80;99.90;;;;;;5007709;28;20188;-53
2023/12/19 01:49:00;;;;;;;19.63;13.83;;;7.80;99.90;;;;;;5015990;28;20721;-55
2023/12/19 01:51:27;;;;;;;20.77;13.27;;;7.80;99.90;;;;;;5012039;28;20192;-53
2023/12/19 01:53:55;;;;;;;22.33;14.33;;;7.80;99.90;;;;;;5013277;28;20192;-55
2023/12/19 01:56:24;;;;;;;21.10;13.00;;;7.80;99.90;;;;;;5012525;28;20199;-54
2023/12/19 01:58:51;;;;;;;22.33;14.27;;;7.80;99.90;;;;;;4992870;28;20596;-56
2023/12/19 02:01:18;;;;;;;23.80;15.20;;;7.80;99.90;;;;;;5017366;28;20801;-53
2023/12/19 02:03:46;;;;;;;21.03;13.63;;;7.80;99.90;;;;;;5012435;28;20200;-55
2023/12/19 02:06:15;;;;;;;19.30;13.60;;;7.80;99.90;;;;;;5015490;28;20666;-52
2023/12/19 02:08:41;;;;;;;18.00;11.47;;;7.80;99.90;;;;;;5014514;28;20219;-54
2023/12/19 02:11:08;;;;;;;17.50;13.07;;;7.80;99.90;;;;;;5009154;28;20536;-55
2023/12/19 02:13:35;;;;;;;18.30;12.53;;;7.80;99.90;;;;;;5008614;28;20208;-56
2023/12/19 02:16:03;;;;;;;21.23;13.17;;;7.70;99.90;;;;;;4993490;28;20290;-55
2023/12/19 02:18:30;;;;;;;18.73;12.37;;;7.80;99.90;;;;;;5003907;28;20267;-56
2023/12/19 02:20:56;;;;;;;22.83;14.23;;;7.80;99.90;;;;;;5010168;28;20259;-56
2023/12/19 02:23:24;;;;;;;22.73;13.80;;;7.80;99.90;;;;;;5009934;28;20542;-55
2023/12/19 02:25:51;;;;;;;16.27;11.07;;;7.80;99.90;;;;;;5016591;28;20270;-54
2023/12/19 02:28:18;;;;;;;23.70;14.30;;;7.80;99.90;;;;;;5017030;28;20200;-54
2023/12/19 02:30:45;;;;;;;16.93;12.27;;;7.80;99.90;;;;;;4981993;28;20196;-53
2023/12/19 02:33:12;;;;;;;21.27;14.43;;;7.80;99.90;;;;;;5013759;28;20841;-56
2023/12/19 02:35:39;;;;;;;21.40;13.33;;;7.80;99.90;;;;;;5002377;28;20251;-56
2023/12/19 02:38:06;;;;;;;20.93;12.90;;;7.80;99.90;;;;;;5009625;28;20204;-56
2023/12/19 02:40:34;;;;;;;22.93;13.43;;;7.80;99.90;;;;;;5018204;28;20211;-54
2023/12/19 02:43:01;;;;;;;18.70;13.40;;;7.80;99.90;;;;;;5013464;28;20292;-56
2023/12/19 02:45:31;;;;;;;20.17;13.43;;;7.80;99.90;;;;;;4992690;28;20208;-53
2023/12/19 02:47:59;;;;;;;23.37;14.60;;;7.80;99.90;;;;;;4999282;28;20232;-56
2023/12/19 02:50:25;;;;;;;19.40;13.53;;;7.80;99.90;;;;;;5011087;28;20216;-55
2023/12/19 02:52:52;;;;;;;19.03;13.50;;;7.80;99.90;;;;;;5015473;28;20591;-55
2023/12/19 02:55:19;;;;;;;20.27;14.30;;;7.80;99.90;;;;;;5019962;28;20188;-54
2023/12/19 02:57:47;;;;;;;21.30;13.93;;;7.80;99.90;;;;;;5012994;28;20204;-54
2023/12/19 03:00:14;;;;;;;22.63;14.30;;;7.80;99.90;;;;;;5009505;28;20240;-54
2023/12/19 03:02:43;;;;;;;17.37;12.43;;;7.80;99.90;;;;;;4985889;28;20347;-52
2023/12/19 03:05:10;;;;;;;19.17;13.80;;;7.80;99.90;;;;;;5009277;28;20568;-56
2023/12/19 03:07:36;;;;;;;20.67;14.37;;;7.80;99.90;;;;;;5014327;28;20247;-54
2023/12/19 03:10:07;;;;;;;19.87;13.43;;;7.80;99.90;;;;;;5013320;28;20216;-52
2023/12/19 03:12:34;;;;;;;19.67;13.07;;;7.80;99.90;;;;;;5016541;28;20200;-53
2023/12/19 03:15:02;;;;;;;21.97;14.00;;;7.80;99.90;;;;;;5013167;28;20270;-55
2023/12/19 03:17:29;;;;;;;16.83;12.40;;;7.80;99.90;;;;;;4987423;28;20333;-55
2023/12/19 03:19:56;;;;;;;17.40;13.40;;;7.70;99.90;;;;;;4995222;28;20322;-55
2023/12/19 03:22:23;;;;;;;23.30;14.70;;;7.80;99.90;;;;;;5016040;28;20211;-56
2023/12/19 03:24:50;;;;;;;20.90;13.17;;;7.80;99.90;;;;;;5009410;28;20197;-51
2023/12/19 03:27:16;;;;;;;19.57;13.43;;;7.80;99.90;;;;;;5019738;28;20192;-55
2023/12/19 03:29:43;;;;;;;20.97;13.90;;;7.70;99.90;;;;;;5018486;28;20228;-53
2023/12/19 03:32:11;;;;;;;17.00;12.70;;;7.70;99.90;;;;;;4992898;28;20227;-51
2023/12/19 03:34:38;;;;;;;15.23;11.33;;;7.80;99.90;;;;;;5012777;28;20211;-54
2023/12/19 03:37:05;;;;;;;19.17;13.27;;;7.70;99.90;;;;;;5016364;28;20942;-56
2023/12/19 03:39:32;;;;;;;16.33;11.47;;;7.70;99.90;;;;;;5020776;28;20285;-55
2023/12/19 03:41:59;;;;;;;17.03;13.10;;;7.70;99.90;;;;;;5008979;28;20220;-55
2023/12/19 03:44:25;;;;;;;19.20;13.40;;;7.70;99.90;;;;;;5014166;28;20220;-55
2023/12/19 03:46:52;;;;;;;20.53;14.27;;;7.70;99.90;;;;;;4989743;28;20665;-53
2023/12/19 03:49:20;;;;;;;20.37;14.27;;;7.70;99.90;;;;;;5005953;28;20227;-54
2023/12/19 03:51:49;;;;;;;19.70;14.70;;;7.70;99.90;;;;;;4997986;28;20277;-52
2023/12/19 03:54:16;;;;;;;19.23;13.57;;;7.70;99.90;;;;;;5015903;28;20207;-56
2023/12/19 03:56:43;;;;;;;19.80;13.27;;;7.60;99.90;;;;;;5016504;28;20191;-53
2023/12/19 03:59:10;;;;;;;18.93;13.57;;;7.70;99.90;;;;;;5016605;28;20216;-53
2023/12/19 04:01:44;;;;;;;18.10;13.43;;;7.70;99.90;;;;;;5011807;28;20292;-53
2023/12/19 04:04:11;;;;;;;16.13;12.17;;;7.70;99.90;;;;;;4989109;28;20208;-53
2023/12/19 04:06:42;;;;;;;17.53;13.33;;;7.60;99.90;;;;;;5003589;28;20266;-53
2023/12/19 04:09:09;;;;;;;20.07;13.53;;;7.60;99.90;;;;;;5005958;28;20228;-55
2023/12/19 04:11:36;;;;;;;17.13;12.83;;;7.70;99.90;;;;;;5011496;28;21018;-54
2023/12/19 04:14:03;;;;;;;14.70;11.30;;;7.60;99.90;;;;;;5008425;28;20212;-53
2023/12/19 04:16:30;;;;;;;16.20;12.40;;;7.60;99.90;;;;;;5014894;28;20671;-54
2023/12/19 04:18:56;;;;;;;13.13;10.87;;;7.70;99.90;;;;;;4987876;28;21007;-55
2023/12/19 04:21:23;;;;;;;15.87;11.13;;;7.60;99.90;;;;;;5006761;28;20212;-55
2023/12/19 04:23:51;;;;;;;14.57;11.33;;;7.60;99.90;;;;;;5005202;28;20219;-53
2023/12/19 04:26:19;;;;;;;12.57;10.00;;;7.70;99.90;;;;;;5015293;28;20208;-52
2023/12/19 04:28:46;;;;;;;14.93;11.27;;;7.60;99.90;;;;;;5010439;28;20555;-52
2023/12/19 04:31:13;;;;;;;13.60;10.53;;;7.60;99.90;;;;;;4997174;28;20208;-55
2023/12/19 04:33:40;;;;;;;12.57;11.00;;;7.70;99.90;;;;;;4987047;28;20204;-54
2023/12/19 04:36:09;;;;;;;12.97;10.47;;;7.70;99.90;;;;;;5005261;28;20247;-53
2023/12/19 04:38:36;;;;;;;16.00;10.63;;;7.60;99.90;;;;;;4981338;28;20227;-52
2023/12/19 04:41:05;;;;;;;14.50;11.43;;;7.60;99.90;;;;;;5010939;28;20204;-54
2023/12/19 04:43:32;;;;;;;14.63;11.03;;;7.60;99.90;;;;;;5010910;28;20288;-52
2023/12/19 04:46:00;;;;;;;14.37;11.23;;;7.60;99.90;;;;;;5013642;28;20193;-54
2023/12/19 04:48:31;;;;;;;14.83;11.23;;;7.60;99.90;;;;;;4998703;28;20205;-51
2023/12/19 04:50:58;;;;;;;14.03;11.37;;;7.60;99.90;;;;;;5011988;28;20206;-52
2023/12/19 04:53:25;;;;;;;12.87;10.63;;;7.60;99.90;;;;;;5000833;28;20228;-52
2023/12/19 04:55:52;;;;;;;16.33;10.83;;;7.60;99.90;;;;;;5007972;28;20192;-52
2023/12/19 04:58:21;;;;;;;15.03;10.67;;;7.60;99.90;;;;;;5016100;28;20223;-54
2023/12/19 05:00:48;;;;;;;15.70;12.07;;;7.60;99.90;;;;;;5003790;28;20228;-55
2023/12/19 05:03:15;;;;;;;14.20;11.20;;;7.60;99.90;;;;;;5011181;28;20220;-55
2023/12/19 05:05:42;;;;;;;13.10;10.43;;;7.60;99.90;;;;;;4987277;28;20284;-56
2023/12/19 05:08:10;;;;;;;14.30;10.93;;;7.60;99.90;;;;;;5000225;28;20208;-54
2023/12/19 05:10:37;;;;;;;16.23;11.53;;;7.60;99.90;;;;;;4997086;28;20196;-52
2023/12/19 05:13:05;;;;;;;13.93;11.63;;;7.50;99.90;;;;;;5011265;28;20196;-55
2023/12/19 05:15:33;;;;;;;13.73;11.63;;;7.60;99.90;;;;;;4997056;28;20220;-51
2023/12/19 05:18:00;;;;;;;13.50;11.23;;;7.60;99.90;;;;;;5013183;28;20259;-55
2023/12/19 05:20:27;;;;;;;14.10;11.47;;;7.60;99.90;;;;;;4993017;28;20647;-50
2023/12/19 05:22:54;;;;;;;16.20;12.20;;;7.60;99.90;;;;;;5008567;28;20220;-55
2023/12/19 05:25:21;;;;;;;13.37;10.83;;;7.60;99.90;;;;;;5015438;28;20246;-54
2023/12/19 05:27:48;;;;;;;14.53;11.17;;;7.50;99.90;;;;;;5013250;28;20568;-55
2023/12/19 05:30:16;;;;;;;15.87;10.80;;;7.50;99.90;;;;;;5009007;28;20228;-53
2023/12/19 05:32:44;;;;;;;13.60;11.20;;;7.50;99.90;;;;;;5007016;28;20184;-56
2023/12/19 05:35:11;;;;;;;15.67;11.70;;;7.60;99.90;;;;;;5018945;28;20206;-54
2023/12/19 05:37:38;;;;;;;14.97;11.50;;;7.60;99.90;;;;;;4988247;28;21353;-53
2023/12/19 05:40:07;;;;;;;13.07;10.73;;;7.50;99.90;;;;;;5011620;28;20221;-54
2023/12/19 05:42:34;;;;;;;16.57;11.67;;;7.50;99.90;;;;;;5010838;28;20224;-56
2023/12/19 05:45:03;;;;;;;14.03;10.73;;;7.50;99.90;;;;;;5019224;28;20273;-55
2023/12/19 05:47:29;;;;;;;13.63;10.80;;;7.50;99.90;;;;;;5005596;28;20204;-52
2023/12/19 05:49:58;;;;;;;12.43;10.47;;;7.50;99.90;;;;;;5013827;28;20248;-57
2023/12/19 05:52:24;;;;;;;15.13;11.03;;;7.50;99.90;;;;;;4982797;28;20675;-53
2023/12/19 05:54:51;;;;;;;11.23;10.00;;;7.50;99.90;;;;;;5014422;28;20200;-55
2023/12/19 05:57:18;;;;;;;15.00;10.37;;;7.50;99.90;;;;;;5010693;28;20247;-53
2023/12/19 05:59:45;;;;;;;12.57;9.63;;;7.40;99.90;;;;;;5006644;28;20217;-55
2023/12/19 06:02:11;;;;;;;12.67;9.13;;;7.40;99.90;;;;;;5012271;28;20733;-54
2023/12/19 06:04:38;;;;;;;11.87;9.40;;;7.40;99.90;;;;;;5013243;28;20492;-55
2023/12/19 06:07:06;;;;;;;10.53;9.43;;;7.40;99.90;;;;;;4993999;28;20207;-55
2023/12/19 06:09:34;;;;;;;9.23;8.20;;;7.40;99.90;;;;;;5001850;28;20254;-54
2023/12/19 06:12:01;;;;;;;11.77;8.73;;;7.30;99.90;;;;;;5015879;28;20200;-55
2023/12/19 06:14:27;;;;;;;11.20;8.13;;;7.30;99.90;;;;;;5009852;28;20216;-53
2023/12/19 06:16:54;;;;;;;8.40;7.50;;;7.40;99.90;;;;;;5008115;28;20203;-53
2023/12/19 06:19:21;;;;;;;9.10;7.40;;;7.30;99.90;;;;;;5015029;28;20638;-54
2023/12/19 06:21:48;;;;;;;9.93;7.23;;;7.30;99.90;;;;;;4992005;28;20347;-55
2023/12/19 06:24:16;;;;;;;7.73;6.57;;;7.30;99.90;;;;;;5006272;28;20208;-53
2023/12/19 06:26:43;;;;;;;7.13;6.43;;;7.30;99.90;;;;;;5004148;28;20196;-55
2023/12/19 06:29:09;;;;;;;6.67;5.70;;;7.30;99.90;;;;;;5014704;28;20227;-53
2023/12/19 06:31:43;;;;;;;6.83;6.13;;;7.30;99.90;;;;;;5009411;28;20294;-54
2023/12/19 06:34:10;;;;;;;6.43;5.83;;;7.30;99.90;;;;;;5014176;28;20215;-55
2023/12/19 06:36:37;;;;;;;6.30;5.70;;;7.30;99.90;;;;;;5012727;28;20212;-55
2023/12/19 06:39:04;;;;;;;6.53;5.63;;;7.30;99.90;;;;;;4994243;28;20227;-56
2023/12/19 06:41:32;;;;;;;6.03;5.33;;;7.30;99.90;;;;;;5003278;28;20643;-55
2023/12/19 06:43:59;;;;;;;5.63;5.13;;;7.30;99.90;;;;;;5015181;28;20213;-55
2023/12/19 06:46:26;;;;;;;5.17;4.67;;;7.30;99.90;;;;;;5014382;28;20196;-53
2023/12/19 06:48:53;;;;;;;5.77;5.10;;;7.30;99.90;;;;;;5011720;28;20220;-54
2023/12/19 06:51:24;;;;;;;5.00;4.60;;;7.30;99.90;;;;;;5003674;28;20197;-53
2023/12/19 06:53:52;;;;;;;4.77;4.37;;;7.30;99.90;;;;;;4987693;28;20227;-53
2023/12/19 06:56:19;;;;;;;5.30;4.73;;;7.30;99.90;;;;;;4997779;28;20211;-55
2023/12/19 06:58:48;;;;;;;4.83;4.33;;;7.30;99.90;;;;;;5005035;28;20227;-54
2023/12/19 07:01:16;;;;;;;4.67;4.20;;;7.20;99.90;;;;;;4997479;28;20627;-51
2023/12/19 07:03:42;;;;;;;4.70;4.20;;;7.30;99.90;;;;;;5004558;28;20209;-53
2023/12/19 07:06:12;;;;;;;4.53;4.13;;;7.20;99.90;;;;;;5003802;28;20240;-51
2023/12/19 07:08:39;;;;;;;4.33;3.90;;;7.30;99.90;;;;;;5004459;28;20266;-51
2023/12/19 07:11:06;;;;;;;4.37;3.97;;;7.30;99.90;;;;;;4975286;28;20262;-52
2023/12/19 07:13:33;;;;;;;3.63;3.33;;;7.20;99.90;;;;;;5011614;28;20662;-51
2023/12/19 07:16:02;;;;;;;4.60;3.47;;;7.30;99.90;;;;;;5009402;28;20200;-55
2023/12/19 07:18:29;;;;;;;3.67;3.37;;;7.30;99.90;;;;;;5005142;28;20209;-55
2023/12/19 07:20:55;;;;;;;3.53;3.23;;;7.20;99.90;;;;;;5008264;28;20200;-56
2023/12/19 07:23:22;;;;;;;3.60;3.30;;;7.20;99.90;;;;;;5005348;28;20212;-53
2023/12/19 07:25:49;;;;;;;3.63;3.33;;;7.20;99.90;;;;;;4986499;28;20236;-54
2023/12/19 07:28:16;;;;;;;3.27;2.97;;;7.20;99.90;;;;;;5007103;28;20200;-50
2023/12/19 07:30:43;;;;;;;3.10;2.90;;;7.20;99.90;;;;;;5016610;28;20261;-51
2023/12/19 07:33:12;;;;;;;3.67;3.37;;;7.20;99.90;;;;;;5008280;28;20180;-50
2023/12/19 07:35:40;;;;;;;3.33;3.03;;;7.20;99.90;;;;;;5007677;28;20357;-57
2023/12/19 07:38:08;;;;;;;3.50;3.20;;;7.20;99.90;;;;;;4991738;28;20306;-54
2023/12/19 07:40:35;;;;;;;3.47;3.17;;;7.20;99.90;;;;;;4991735;28;20259;-53
2023/12/19 07:43:02;;;;;;;3.17;2.97;;;7.20;99.90;;;;;;5006055;28;20290;-57
2023/12/19 07:45:30;;;;;;;3.03;2.83;;;7.20;99.90;;;;;;5009097;28;20205;-54
2023/12/19 07:47:57;;;;;;;3.07;2.87;;;7.20;99.90;;;;;;5011877;28;20196;-56
2023/12/19 07:50:25;;;;;;;2.97;2.77;;;7.20;99.90;;;;;;5009206;28;20342;-54
2023/12/19 07:52:51;;;;;;;3.07;2.87;;;7.10;99.90;;;;;;5006530;28;20196;-57
2023/12/19 07:55:18;;;;;;;3.27;3.03;;;7.10;99.90;;;;;;4990279;28;20234;-56
2023/12/19 07:57:45;;;;;;;3.43;3.13;;;7.10;99.90;;;;;;5007177;28;20204;-56
2023/12/19 08:00:13;;;;;;;3.80;3.50;;;7.10;99.90;;;;;;4999654;28;20321;-54
2023/12/19 08:02:42;;;;;;;3.20;2.90;;;7.10;99.90;;;;;;5017706;28;20208;-56
2023/12/19 08:05:12;;;;;;;3.47;3.23;;;7.10;99.90;;;;;;5006153;28;20266;-55
2023/12/19 08:07:40;;;;;;;3.57;3.27;;;7.10;99.90;;;;;;5018553;28;20286;-53
2023/12/19 08:10:07;;;;;;;3.33;3.13;;;7.10;99.90;;;;;;4977533;28;20232;-53
2023/12/19 08:12:34;;;;;;;2.83;2.63;;;7.10;99.90;;;;;;5009626;28;20711;-56
2023/12/19 08:15:01;;;;;;;2.73;2.53;;;7.10;99.90;;;;;;4995553;28;20294;-57
2023/12/19 08:17:28;;;;;;;3.07;2.87;;;7.10;99.90;;;;;;5006536;28;20200;-54
2023/12/19 08:19:55;;;;;;;3.33;2.80;;;7.10;99.90;;;;;;5007537;28;20303;-53
2023/12/19 08:22:23;;;;;;;3.03;2.83;;;7.10;99.90;;;;;;5003525;28;20211;-54
2023/12/19 08:24:51;;;;;;;2.93;2.73;;;7.10;99.90;;;;;;4997686;28;20209;-53
2023/12/19 08:27:22;;;;;;;2.80;2.60;;;7.10;99.90;;;;;;4995968;28;20195;-55
2023/12/19 08:29:50;;;;;;;2.33;2.13;;;7.10;99.90;;;;;;5012943;28;20300;-56
2023/12/19 08:32:17;;;;;;;2.63;2.43;;;7.10;99.90;;;;;;4998036;28;20281;-52
2023/12/19 08:34:44;;;;;;;2.40;2.20;;;7.10;99.90;;;;;;5008845;28;20192;-54
2023/12/19 08:37:11;;;;;;;2.43;2.33;;;7.10;99.90;;;;;;4987302;28;20213;-52
2023/12/19 08:39:37;;;;;;;2.40;2.30;;;7.10;99.90;;;;;;4999158;28;20297;-52
2023/12/19 08:42:06;;;;;;;2.77;2.57;;;7.10;99.90;;;;;;4981250;28;20212;-54
2023/12/19 08:44:32;;;;;;;4.27;2.53;;;7.10;99.90;;;;;;5009379;28;20219;-53
2023/12/19 08:46:59;;;;;;;2.00;1.90;;;7.10;99.90;;;;;;4997597;28;20251;-54
2023/12/19 08:49:26;;;;;;;2.20;2.10;;;7.10;99.90;;;;;;5006545;28;20212;-50
2023/12/19 08:51:53;;;;;;;1.87;1.77;;;7.10;99.90;;;;;;5012447;28;20216;-51
2023/12/19 08:54:19;;;;;;;1.60;1.50;;;7.10;99.90;;;;;;4991630;28;20713;-52
2023/12/19 08:56:46;;;;;;;1.73;1.63;;;7.10;99.90;;;;;;4989051;28;20200;-50
2023/12/19 08:59:14;;;;;;;1.87;1.70;;;7.00;99.90;;;;;;5014966;28;20277;-54
2023/12/19 09:01:41;;;;;;;1.67;1.57;;;7.10;99.90;;;;;;5013118;28;20264;-51
2023/12/19 09:04:08;;;;;;;1.50;1.40;;;7.10;99.90;;;;;;5015929;28;20588;-53
2023/12/19 09:06:35;;;;;;;1.60;1.50;;;7.10;99.90;;;;;;5015232;28;20201;-52
2023/12/19 09:09:02;;;;;;;1.60;1.50;;;7.00;99.90;;;;;;5005770;28;20297;-51
2023/12/19 09:11:29;;;;;;;1.53;1.43;;;7.10;99.90;;;;;;4989867;28;20208;-51
2023/12/19 09:13:56;;;;;;;1.50;1.40;;;7.10;99.90;;;;;;5004959;28;20724;-54
2023/12/19 09:16:24;;;;;;;1.30;1.30;;;7.10;99.90;;;;;;5003640;28;21565;-54
2023/12/19 09:18:51;;;;;;;2.13;1.40;;;7.00;99.90;;;;;;4995888;28;20701;-56
2023/12/19 09:21:18;;;;;;;1.77;1.60;;;7.00;99.90;;;;;;5016342;28;20383;-54
2023/12/19 09:23:44;;;;;;;1.27;1.23;;;7.10;99.90;;;;;;5006726;28;20300;-53
2023/12/19 09:26:13;;;;;;;1.53;1.33;;;7.10;99.90;;;;;;5004617;28;22857;-56
2023/12/19 09:28:41;;;;;;;1.40;1.30;;;7.10;99.90;;;;;;4988099;28;20232;-56
2023/12/19 09:31:08;;;;;;;1.03;1.03;;;7.10;99.90;;;;;;5015489;28;20197;-50
2023/12/19 09:33:38;;;;;;;1.57;1.47;;;7.00;99.90;;;;;;5006974;28;20204;-51
2023/12/19 09:36:05;;;;;;;1.90;1.20;;;7.10;99.90;;;;;;5001056;28;20211;-51
2023/12/19 09:38:32;;;;;;;1.20;1.10;;;7.10;99.90;;;;;;5022160;28;20630;-53
2023/12/19 09:40:59;;;;;;;1.10;1.10;;;7.00;99.90;;;;;;5000815;28;20225;-55
2023/12/19 09:43:31;;;;;;;1.30;1.20;;;7.10;99.90;;;;;;4990556;28;20244;-52
2023/12/19 09:46:01;;;;;;;1.37;1.30;;;7.10;99.90;;;;;;5013116;28;20291;-60
2023/12/19 09:48:30;;;;;;;1.47;1.37;;;7.10;99.90;;;;;;5012173;28;20211;-54
2023/12/19 09:51:02;;;;;;;1.30;1.30;;;7.10;99.90;;;;;;5003412;28;20636;-55
2023/12/19 09:53:31;;;;;;;1.63;1.53;;;7.10;99.90;;;;;;5012679;28;20189;-50
2023/12/19 09:55:58;;;;;;;4.00;1.80;;;7.10;99.90;;;;;;5005461;28;20196;-53
2023/12/19 09:58:28;;;;;;;1.93;1.83;;;7.10;99.90;;;;;;4988615;28;20672;-52
2023/12/19 10:00:57;;;;;;;1.67;1.57;;;7.10;99.90;;;;;;5012618;28;20219;-55
2023/12/19 10:03:24;;;;;;;1.87;1.77;;;7.10;99.90;;;;;;5015690;28;20220;-50
2023/12/19 10:05:51;;;;;;;1.70;1.60;;;7.10;99.90;;;;;;4996760;28;20258;-57
2023/12/19 10:08:21;;;;;;;2.13;2.03;;;7.10;99.90;;;;;;5011232;28;20200;-51
2023/12/19 10:10:55;;;;;;;2.00;1.90;;;7.10;99.90;;;;;;5010408;28;20668;-55
2023/12/19 10:13:30;;;;;;;2.03;1.90;;;7.00;99.90;;;;;;4986263;28;20338;-53
2023/12/19 10:16:01;;;;;;;2.00;1.90;;;7.00;99.90;;;;;;5006368;28;20208;-53
2023/12/19 10:18:28;;;;;;;1.73;1.63;;;7.10;99.90;;;;;;5014451;28;20234;-54
2023/12/19 10:21:04;;;;;;;2.00;1.90;;;7.10;99.90;;;;;;5009816;28;20287;-55
2023/12/19 10:23:33;;;;;;;2.03;1.93;;;7.10;99.90;;;;;;5008944;28;20208;-51
2023/12/19 10:26:00;;;;;;;1.80;1.70;;;7.10;99.90;;;;;;5013464;28;20817;-52
2023/12/19 10:28:27;;;;;;;3.43;2.00;;;7.10;99.90;;;;;;5003371;28;20275;-55
2023/12/19 10:31:10;;;;;;;1.87;1.70;;;7.10;99.90;;;;;;4988414;28;20258;-55
2023/12/19 10:33:42;;;;;;;1.60;1.50;;;7.20;99.90;;;;;;5009640;28;20203;-54
2023/12/19 10:36:09;;;;;;;3.07;1.70;;;7.10;99.90;;;;;;5004028;28;20209;-50
2023/12/19 10:38:47;;;;;;;1.90;1.80;;;7.10;99.90;;;;;;5011035;28;20227;-52
2023/12/19 10:41:22;;;;;;;2.10;2.00;;;7.10;99.90;;;;;;5017302;28;20196;-55
2023/12/19 10:43:50;;;;;;;1.80;1.70;;;7.20;99.90;;;;;;4999238;28;20242;-52
2023/12/19 10:46:19;;;;;;;2.00;1.80;;;7.20;99.90;;;;;;5006489;28;20288;-54
2023/12/19 10:48:47;;;;;;;1.73;1.63;;;7.20;99.90;;;;;;5005756;28;20224;-56
2023/12/19 10:51:16;;;;;;;1.97;1.87;;;7.20;99.90;;;;;;5000167;28;20204;-52
2023/12/19 10:53:50;;;;;;;2.10;2.00;;;7.20;99.90;;;;;;5003815;28;20198;-55
2023/12/19 10:56:22;;;;;;;2.20;2.10;;;7.20;99.90;;;;;;5010031;28;20199;-55
2023/12/19 10:58:53;;;;;;;2.03;1.93;;;7.20;99.90;;;;;;5004947;28;20247;-56
2023/12/19 11:01:23;;;;;;;2.47;2.27;;;7.20;99.90;;;;;;4991481;28;20204;-55
2023/12/19 11:03:56;;;;;;;2.50;2.30;;;7.20;99.90;;;;;;5007118;28;20243;-55
2023/12/19 11:06:27;;;;;;;2.40;2.20;;;7.20;99.90;;;;;;5004596;28;20208;-56
2023/12/19 11:09:03;;;;;;;2.70;2.50;;;7.20;99.90;;;;;;5004059;28;20787;-55
2023/12/19 11:11:36;;;;;;;2.97;2.77;;;7.20;99.90;;;;;;5013326;28;20196;-56
2023/12/19 11:14:04;;;;;;;2.60;2.50;;;7.20;99.90;;;;;;5004138;28;20294;-54
2023/12/19 11:16:38;;;;;;;2.60;2.50;;;7.20;99.90;;;;;;4985862;28;20223;-51
2023/12/19 11:19:12;;;;;;;2.83;2.67;;;7.30;99.90;;;;;;4997968;28;21051;-52
2023/12/19 11:21:45;;;;;;;3.20;3.00;;;7.20;99.90;;;;;;5011220;28;20659;-56
2023/12/19 11:24:18;;;;;;;3.47;3.23;;;7.30;99.90;;;;;;5005274;28;21374;-59
2023/12/19 11:26:51;;;;;;;2.53;2.33;;;7.30;99.90;;;;;;5014561;28;20200;-56
2023/12/19 11:29:44;;;;;;;3.23;3.00;;;7.30;99.90;;;;;;5011096;28;20272;-52
2023/12/19 11:32:37;;;;;;;3.40;3.20;;;7.30;99.90;;;;;;4983546;28;20218;-53
2023/12/19 11:35:10;;;;;;;3.77;3.47;;;7.30;99.90;;;;;;4992117;28;20671;-54
2023/12/19 11:37:37;;;;;;;3.50;3.30;;;7.30;99.90;;;;;;5003688;28;20208;-52
2023/12/19 11:40:08;;;;;;;3.70;3.50;;;7.30;99.90;;;;;;5011401;28;20649;-56
2023/12/19 11:42:45;;;;;;;3.57;3.37;;;7.30;99.90;;;;;;5012502;28;20950;-54
2023/12/19 11:45:37;;;;;;;3.77;3.47;;;7.30;99.90;;;;;;5018022;28;20223;-56
2023/12/19 11:48:35;;;;;;;3.17;2.97;;;7.30;99.90;;;;;;4989848;28;20216;-54
2023/12/19 11:51:02;;;;;;;3.53;3.23;;;7.30;99.90;;;;;;5010414;28;20204;-58
2023/12/19 11:53:29;;;;;;;4.00;3.67;;;7.30;99.90;;;;;;5000496;28;20211;-57
2023/12/19 11:56:15;;;;;;;3.90;3.60;;;7.30;99.90;;;;;;5001922;28;20216;-54
2023/12/19 11:58:47;;;;;;;4.20;3.80;;;7.40;99.90;;;;;;5008948;28;20211;-52
2023/12/19 12:01:15;;;;;;;3.73;3.43;;;7.40;99.90;;;;;;5008704;28;20627;-57
2023/12/19 12:03:42;;;;;;;4.20;3.80;;;7.40;99.90;;;;;;4985620;28;20295;-57
2023/12/19 12:06:09;;;;;;;4.00;3.70;;;7.40;99.90;;;;;;5008727;28;20224;-54
2023/12/19 12:08:36;;;;;;;4.20;3.87;;;7.40;99.90;;;;;;5005343;28;20961;-56
2023/12/19 12:11:04;;;;;;;5.07;3.83;;;7.40;99.90;;;;;;5008491;28;20227;-50
2023/12/19 12:13:33;;;;;;;4.30;4.00;;;7.40;99.90;;;;;;5011120;28;20262;-53
2023/12/19 12:16:01;;;;;;;4.53;4.13;;;7.50;99.90;;;;;;5011676;28;20193;-51
2023/12/19 12:18:30;;;;;;;4.50;4.20;;;7.40;99.90;;;;;;5005084;28;20289;-53
2023/12/19 12:21:06;;;;;;;4.47;4.17;;;7.50;99.90;;;;;;4981593;28;20213;-51
2023/12/19 12:23:32;;;;;;;4.27;3.90;;;7.50;99.90;;;;;;5011823;28;20202;-52
2023/12/19 12:25:59;;;;;;;4.50;4.10;;;7.50;99.90;;;;;;5001671;28;20279;-50
2023/12/19 12:28:27;;;;;;;4.90;4.50;;;7.50;99.90;;;;;;5011826;28;20253;-54
2023/12/19 12:30:56;;;;;;;5.17;4.77;;;7.50;99.90;;;;;;5009962;28;20258;-50
2023/12/19 12:33:27;;;;;;;4.40;4.10;;;7.50;99.90;;;;;;5011942;28;20200;-53
2023/12/19 12:35:54;;;;;;;4.47;4.07;;;7.50;99.90;;;;;;4993990;28;20208;-50
2023/12/19 12:38:23;;;;;;;4.77;4.37;;;7.50;99.90;;;;;;5006972;28;20287;-51
2023/12/19 12:40:58;;;;;;;4.70;4.30;;;7.50;99.90;;;;;;5003116;28;20195;-53
2023/12/19 12:43:28;;;;;;;5.10;4.63;;;7.50;99.90;;;;;;5003892;28;20275;-54
2023/12/19 12:46:04;;;;;;;4.57;4.27;;;7.60;99.90;;;;;;5016659;28;20188;-52
2023/12/19 12:48:30;;;;;;;4.20;3.90;;;7.60;99.90;;;;;;5006691;28;20569;-53
2023/12/19 12:50:57;;;;;;;4.80;4.40;;;7.60;99.90;;;;;;4986853;28;20232;-52
2023/12/19 12:53:25;;;;;;;4.27;3.97;;;7.50;99.90;;;;;;4996228;28;20205;-50